sensor_id;sensor_type;location;lat;lon;timestamp;temperature;humidity
44573;DHT22;31762;45.420;10.072;2022-07-11T00:04:50;25.90;99.30
44573;DHT22;31762;45.420;10.072;2022-07-11T00:09:52;26.10;99.20
44573;DHT22;31762;45.420;10.072;2022-07-11T00:14:54;25.90;99.60
44573;DHT22;31762;45.420;10.072;2022-07-11T00:19:56;26.10;99.40
44573;DHT22;31762;45.420;10.072;2022-07-11T00:24:58;25.80;99.90
44573;DHT22;31762;45.420;10.072;2022-07-11T00:30:00;25.90;99.90
44573;DHT22;31762;45.420;10.072;2022-07-11T00:35:02;25.70;99.90
44573;DHT22;31762;45.420;10.072;2022-07-11T00:40:04;25.90;99.90
44573;DHT22;31762;45.420;10.072;2022-07-11T00:45:06;25.70;99.90
44573;DHT22;31762;45.420;10.072;2022-07-11T00:50:09;25.60;99.90
44573;DHT22;31762;45.420;10.072;2022-07-11T00:55:11;25.60;99.90
44573;DHT22;31762;45.420;10.072;2022-07-11T01:00:13;25.50;99.90
44573;DHT22;31762;45.420;10.072;2022-07-11T01:05:15;25.50;99.90
44573;DHT22;31762;45.420;10.072;2022-07-11T01:10:17;25.60;99.90
44573;DHT22;31762;45.420;10.072;2022-07-11T01:15:18;25.50;99.90
44573;DHT22;31762;45.420;10.072;2022-07-11T01:20:21;25.40;99.90
44573;DHT22;31762;45.420;10.072;2022-07-11T01:25:23;25.30;99.90
44573;DHT22;31762;45.420;10.072;2022-07-11T01:30:26;25.30;99.90
44573;DHT22;31762;45.420;10.072;2022-07-11T01:35:29;25.30;99.90
44573;DHT22;31762;45.420;10.072;2022-07-11T01:40:31;25.30;99.90
44573;DHT22;31762;45.420;10.072;2022-07-11T01:45:32;25.30;99.90
44573;DHT22;31762;45.420;10.072;2022-07-11T01:50:34;25.40;99.90
44573;DHT22;31762;45.420;10.072;2022-07-11T01:55:36;25.00;99.90
44573;DHT22;31762;45.420;10.072;2022-07-11T02:00:58;25.00;99.90
44573;DHT22;31762;45.420;10.072;2022-07-11T02:06:00;25.00;99.90
44573;DHT22;31762;45.420;10.072;2022-07-11T02:11:02;25.10;99.90
44573;DHT22;31762;45.420;10.072;2022-07-11T02:16:04;25.40;99.90
44573;DHT22;31762;45.420;10.072;2022-07-11T02:21:06;25.30;99.90
44573;DHT22;31762;45.420;10.072;2022-07-11T02:26:08;25.30;99.90
44573;DHT22;31762;45.420;10.072;2022-07-11T02:31:09;25.20;99.90
44573;DHT22;31762;45.420;10.072;2022-07-11T02:36:11;25.00;99.90
44573;DHT22;31762;45.420;10.072;2022-07-11T02:41:13;24.80;99.90
44573;DHT22;31762;45.420;10.072;2022-07-11T02:46:15;24.60;99.90
44573;DHT22;31762;45.420;10.072;2022-07-11T02:51:17;24.60;99.90
44573;DHT22;31762;45.420;10.072;2022-07-11T02:56:18;24.50;99.90
44573;DHT22;31762;45.420;10.072;2022-07-11T03:01:20;24.60;99.90
44573;DHT22;31762;45.420;10.072;2022-07-11T03:06:22;24.70;99.90
44573;DHT22;31762;45.420;10.072;2022-07-11T03:11:24;24.40;99.90
44573;DHT22;31762;45.420;10.072;2022-07-11T03:16:26;24.20;99.90
44573;DHT22;31762;45.420;10.072;2022-07-11T03:21:28;24.20;99.90
44573;DHT22;31762;45.420;10.072;2022-07-11T03:26:30;24.40;99.90
44573;DHT22;31762;45.420;10.072;2022-07-11T03:31:32;24.40;99.90
44573;DHT22;31762;45.420;10.072;2022-07-11T03:36:33;24.40;99.90
44573;DHT22;31762;45.420;10.072;2022-07-11T03:41:35;24.40;99.90
44573;DHT22;31762;45.420;10.072;2022-07-11T03:46:37;24.40;99.90
44573;DHT22;31762;45.420;10.072;2022-07-11T03:51:39;24.20;99.90
44573;DHT22;31762;45.420;10.072;2022-07-11T03:56:40;24.50;99.90
44573;DHT22;31762;45.420;10.072;2022-07-11T04:01:42;24.70;99.90
44573;DHT22;31762;45.420;10.072;2022-07-11T04:06:44;24.60;99.90
44573;DHT22;31762;45.420;10.072;2022-07-11T04:11:46;24.40;99.90
44573;DHT22;31762;45.420;10.072;2022-07-11T04:16:47;24.40;99.90
44573;DHT22;31762;45.420;10.072;2022-07-11T04:21:49;24.50;99.90
44573;DHT22;31762;45.420;10.072;2022-07-11T04:26:51;25.10;99.90
44573;DHT22;31762;45.420;10.072;2022-07-11T04:31:53;25.00;99.90
44573;DHT22;31762;45.420;10.072;2022-07-11T04:36:55;25.30;99.90
44573;DHT22;31762;45.420;10.072;2022-07-11T04:41:56;25.30;99.90
44573;DHT22;31762;45.420;10.072;2022-07-11T04:46:58;25.40;99.90
44573;DHT22;31762;45.420;10.072;2022-07-11T04:52:00;25.00;99.90
44573;DHT22;31762;45.420;10.072;2022-07-11T04:57:04;24.80;99.90
44573;DHT22;31762;45.420;10.072;2022-07-11T05:02:06;25.30;99.90
44573;DHT22;31762;45.420;10.072;2022-07-11T05:07:07;25.20;99.90
44573;DHT22;31762;45.420;10.072;2022-07-11T05:12:09;25.50;99.90
44573;DHT22;31762;45.420;10.072;2022-07-11T05:17:11;25.40;99.90
44573;DHT22;31762;45.420;10.072;2022-07-11T05:22:13;25.30;99.90
44573;DHT22;31762;45.420;10.072;2022-07-11T05:27:15;25.50;99.90
44573;DHT22;31762;45.420;10.072;2022-07-11T05:32:17;25.60;99.90
44573;DHT22;31762;45.420;10.072;2022-07-11T05:37:18;25.80;99.90
44573;DHT22;31762;45.420;10.072;2022-07-11T05:42:20;25.80;99.90
44573;DHT22;31762;45.420;10.072;2022-07-11T05:47:22;25.90;99.90
44573;DHT22;31762;45.420;10.072;2022-07-11T05:52:24;26.10;99.90
44573;DHT22;31762;45.420;10.072;2022-07-11T05:57:26;26.30;99.90
44573;DHT22;31762;45.420;10.072;2022-07-11T06:02:27;26.40;99.90
44573;DHT22;31762;45.420;10.072;2022-07-11T06:07:29;26.40;99.90
44573;DHT22;31762;45.420;10.072;2022-07-11T06:12:31;26.30;99.90
44573;DHT22;31762;45.420;10.072;2022-07-11T06:17:33;26.50;99.90
44573;DHT22;31762;45.420;10.072;2022-07-11T06:22:35;26.80;99.90
44573;DHT22;31762;45.420;10.072;2022-07-11T06:27:37;26.90;99.90
44573;DHT22;31762;45.420;10.072;2022-07-11T06:32:39;26.90;99.90
44573;DHT22;31762;45.420;10.072;2022-07-11T06:37:41;26.90;99.90
44573;DHT22;31762;45.420;10.072;2022-07-11T06:42:43;27.10;99.90
44573;DHT22;31762;45.420;10.072;2022-07-11T06:47:45;27.10;99.90
44573;DHT22;31762;45.420;10.072;2022-07-11T06:52:47;27.20;99.90
44573;DHT22;31762;45.420;10.072;2022-07-11T06:57:49;27.30;99.90
44573;DHT22;31762;45.420;10.072;2022-07-11T07:03:10;27.40;99.90
44573;DHT22;31762;45.420;10.072;2022-07-11T07:08:25;27.50;99.90
44573;DHT22;31762;45.420;10.072;2022-07-11T07:13:27;27.50;99.90
44573;DHT22;31762;45.420;10.072;2022-07-11T07:18:29;27.60;99.90
44573;DHT22;31762;45.420;10.072;2022-07-11T07:23:31;27.40;99.90
44573;DHT22;31762;45.420;10.072;2022-07-11T07:28:32;27.80;99.90
44573;DHT22;31762;45.420;10.072;2022-07-11T07:33:37;27.80;99.90
44573;DHT22;31762;45.420;10.072;2022-07-11T07:38:46;27.90;99.90
44573;DHT22;31762;45.420;10.072;2022-07-11T07:43:48;27.70;99.90
44573;DHT22;31762;45.420;10.072;2022-07-11T07:48:50;27.70;99.90
44573;DHT22;31762;45.420;10.072;2022-07-11T07:53:52;27.80;99.90
44573;DHT22;31762;45.420;10.072;2022-07-11T07:58:57;27.90;99.90
44573;DHT22;31762;45.420;10.072;2022-07-11T08:03:59;28.20;99.90
44573;DHT22;31762;45.420;10.072;2022-07-11T08:09:02;28.40;99.90
44573;DHT22;31762;45.420;10.072;2022-07-11T08:14:04;28.70;99.90
44573;DHT22;31762;45.420;10.072;2022-07-11T08:19:06;28.50;99.90
44573;DHT22;31762;45.420;10.072;2022-07-11T08:24:08;28.80;99.90
44573;DHT22;31762;45.420;10.072;2022-07-11T08:29:10;28.90;99.90
44573;DHT22;31762;45.420;10.072;2022-07-11T08:34:12;29.20;99.90
44573;DHT22;31762;45.420;10.072;2022-07-11T08:39:17;29.40;99.90
44573;DHT22;31762;45.420;10.072;2022-07-11T08:44:19;29.30;99.90
44573;DHT22;31762;45.420;10.072;2022-07-11T08:49:21;29.50;99.90
44573;DHT22;31762;45.420;10.072;2022-07-11T08:54:24;29.50;99.90
44573;DHT22;31762;45.420;10.072;2022-07-11T08:59:27;29.70;99.90
44573;DHT22;31762;45.420;10.072;2022-07-11T09:04:32;29.70;99.90
44573;DHT22;31762;45.420;10.072;2022-07-11T09:09:34;29.80;99.90
44573;DHT22;31762;45.420;10.072;2022-07-11T09:14:36;29.80;99.90
44573;DHT22;31762;45.420;10.072;2022-07-11T09:19:38;30.20;99.90
44573;DHT22;31762;45.420;10.072;2022-07-11T09:25:13;30.40;99.90
44573;DHT22;31762;45.420;10.072;2022-07-11T09:30:24;30.50;99.90
44573;DHT22;31762;45.420;10.072;2022-07-11T09:35:35;30.50;99.90
44573;DHT22;31762;45.420;10.072;2022-07-11T09:40:38;30.60;99.90
44573;DHT22;31762;45.420;10.072;2022-07-11T09:45:40;30.60;99.90
44573;DHT22;31762;45.420;10.072;2022-07-11T09:50:55;30.60;99.90
44573;DHT22;31762;45.420;10.072;2022-07-11T09:55:57;30.90;99.90
44573;DHT22;31762;45.420;10.072;2022-07-11T10:00:59;31.10;99.90
44573;DHT22;31762;45.420;10.072;2022-07-11T10:06:01;30.90;99.90
44573;DHT22;31762;45.420;10.072;2022-07-11T10:11:03;31.30;99.90
44573;DHT22;31762;45.420;10.072;2022-07-11T10:16:35;31.40;99.90
44573;DHT22;31762;45.420;10.072;2022-07-11T10:26:42;31.60;99.90
44573;DHT22;31762;45.420;10.072;2022-07-11T10:32:03;31.80;98.90
44573;DHT22;31762;45.420;10.072;2022-07-11T10:37:14;31.20;98.60
44573;DHT22;31762;45.420;10.072;2022-07-11T10:42:20;31.80;99.90
44573;DHT22;31762;45.420;10.072;2022-07-11T10:47:42;32.30;99.90
44573;DHT22;31762;45.420;10.072;2022-07-11T10:52:56;31.90;98.50
44573;DHT22;31762;45.420;10.072;2022-07-11T10:58:41;31.90;98.70
44573;DHT22;31762;45.420;10.072;2022-07-11T11:03:23;32.00;99.70
44573;DHT22;31762;45.420;10.072;2022-07-11T11:08:44;32.30;98.60
44573;DHT22;31762;45.420;10.072;2022-07-11T11:13:46;32.40;99.50
44573;DHT22;31762;45.420;10.072;2022-07-11T11:18:48;32.90;99.00
44573;DHT22;31762;45.420;10.072;2022-07-11T11:28:56;32.50;98.70
44573;DHT22;31762;45.420;10.072;2022-07-11T11:34:00;32.60;96.70
44573;DHT22;31762;45.420;10.072;2022-07-11T11:39:02;33.30;97.30
44573;DHT22;31762;45.420;10.072;2022-07-11T11:44:04;33.30;96.10
44573;DHT22;31762;45.420;10.072;2022-07-11T11:49:06;33.50;97.70
44573;DHT22;31762;45.420;10.072;2022-07-11T11:54:08;33.70;96.20
44573;DHT22;31762;45.420;10.072;2022-07-11T11:59:10;33.60;97.00
44573;DHT22;31762;45.420;10.072;2022-07-11T12:04:18;34.10;97.60
44573;DHT22;31762;45.420;10.072;2022-07-11T12:09:21;34.10;95.40
44573;DHT22;31762;45.420;10.072;2022-07-11T12:14:23;34.10;95.90
44573;DHT22;31762;45.420;10.072;2022-07-11T12:19:33;34.40;98.50
44573;DHT22;31762;45.420;10.072;2022-07-11T12:24:35;34.50;97.40
44573;DHT22;31762;45.420;10.072;2022-07-11T12:29:40;34.10;97.90
44573;DHT22;31762;45.420;10.072;2022-07-11T12:34:43;34.30;95.80
44573;DHT22;31762;45.420;10.072;2022-07-11T12:40:03;34.00;95.40
44573;DHT22;31762;45.420;10.072;2022-07-11T12:45:07;34.30;97.70
44573;DHT22;31762;45.420;10.072;2022-07-11T12:50:18;34.40;95.00
44573;DHT22;31762;45.420;10.072;2022-07-11T12:55:21;34.30;95.70
44573;DHT22;31762;45.420;10.072;2022-07-11T13:00:23;34.90;94.50
44573;DHT22;31762;45.420;10.072;2022-07-11T13:05:25;34.70;92.60
44573;DHT22;31762;45.420;10.072;2022-07-11T13:10:27;35.10;96.50
44573;DHT22;31762;45.420;10.072;2022-07-11T13:15:29;34.70;94.40
44573;DHT22;31762;45.420;10.072;2022-07-11T13:20:31;34.60;95.80
44573;DHT22;31762;45.420;10.072;2022-07-11T13:25:34;34.90;96.10
44573;DHT22;31762;45.420;10.072;2022-07-11T13:30:36;34.90;93.50
44573;DHT22;31762;45.420;10.072;2022-07-11T13:35:57;34.10;93.50
44573;DHT22;31762;45.420;10.072;2022-07-11T13:40:59;34.90;94.80
44573;DHT22;31762;45.420;10.072;2022-07-11T13:46:01;34.40;94.50
44573;DHT22;31762;45.420;10.072;2022-07-11T13:51:03;34.50;93.30
44573;DHT22;31762;45.420;10.072;2022-07-11T13:56:05;35.00;93.20
44573;DHT22;31762;45.420;10.072;2022-07-11T14:01:07;35.20;93.00
44573;DHT22;31762;45.420;10.072;2022-07-11T14:06:09;35.00;92.90
44573;DHT22;31762;45.420;10.072;2022-07-11T14:11:12;35.30;94.20
44573;DHT22;31762;45.420;10.072;2022-07-11T14:16:13;35.20;92.10
44573;DHT22;31762;45.420;10.072;2022-07-11T14:21:27;35.40;93.60
44573;DHT22;31762;45.420;10.072;2022-07-11T14:26:29;35.10;92.00
44573;DHT22;31762;45.420;10.072;2022-07-11T14:31:32;35.20;91.60
44573;DHT22;31762;45.420;10.072;2022-07-11T14:36:34;34.90;91.70
44573;DHT22;31762;45.420;10.072;2022-07-11T14:41:36;35.20;92.80
44573;DHT22;31762;45.420;10.072;2022-07-11T14:46:38;34.90;92.10
44573;DHT22;31762;45.420;10.072;2022-07-11T14:51:47;34.60;93.30
44573;DHT22;31762;45.420;10.072;2022-07-11T14:56:58;35.20;92.10
44573;DHT22;31762;45.420;10.072;2022-07-11T15:02:00;35.20;93.20
44573;DHT22;31762;45.420;10.072;2022-07-11T15:07:02;35.10;92.00
44573;DHT22;31762;45.420;10.072;2022-07-11T15:12:04;34.80;91.40
44573;DHT22;31762;45.420;10.072;2022-07-11T15:17:06;34.70;93.60
44573;DHT22;31762;45.420;10.072;2022-07-11T15:22:08;35.20;92.60
44573;DHT22;31762;45.420;10.072;2022-07-11T15:27:10;34.90;91.40
44573;DHT22;31762;45.420;10.072;2022-07-11T15:32:12;34.80;92.20
44573;DHT22;31762;45.420;10.072;2022-07-11T15:37:13;34.90;92.10
44573;DHT22;31762;45.420;10.072;2022-07-11T15:42:15;34.60;91.80
44573;DHT22;31762;45.420;10.072;2022-07-11T15:47:17;34.70;91.80
44573;DHT22;31762;45.420;10.072;2022-07-11T15:52:19;34.20;92.70
44573;DHT22;31762;45.420;10.072;2022-07-11T15:57:20;34.30;92.00
44573;DHT22;31762;45.420;10.072;2022-07-11T16:02:22;34.10;91.60
44573;DHT22;31762;45.420;10.072;2022-07-11T16:07:24;34.20;92.40
44573;DHT22;31762;45.420;10.072;2022-07-11T16:12:27;34.30;92.80
44573;DHT22;31762;45.420;10.072;2022-07-11T16:17:29;34.10;92.60
44573;DHT22;31762;45.420;10.072;2022-07-11T16:22:31;33.90;94.00
44573;DHT22;31762;45.420;10.072;2022-07-11T16:27:33;33.50;93.10
44573;DHT22;31762;45.420;10.072;2022-07-11T16:32:35;33.20;93.70
44573;DHT22;31762;45.420;10.072;2022-07-11T16:37:37;32.60;94.30
44573;DHT22;31762;45.420;10.072;2022-07-11T16:42:38;32.60;94.80
44573;DHT22;31762;45.420;10.072;2022-07-11T16:47:40;32.30;94.50
44573;DHT22;31762;45.420;10.072;2022-07-11T16:52:42;32.00;95.00
44573;DHT22;31762;45.420;10.072;2022-07-11T16:57:44;32.00;95.60
44573;DHT22;31762;45.420;10.072;2022-07-11T17:02:46;32.00;95.70
44573;DHT22;31762;45.420;10.072;2022-07-11T17:07:48;31.70;95.70
44573;DHT22;31762;45.420;10.072;2022-07-11T17:12:51;31.50;96.30
44573;DHT22;31762;45.420;10.072;2022-07-11T17:17:52;31.60;96.10
44573;DHT22;31762;45.420;10.072;2022-07-11T17:22:55;31.40;96.50
44573;DHT22;31762;45.420;10.072;2022-07-11T17:27:57;31.30;96.50
44573;DHT22;31762;45.420;10.072;2022-07-11T17:32:59;31.20;97.40
44573;DHT22;31762;45.420;10.072;2022-07-11T17:38:03;31.00;98.10
44573;DHT22;31762;45.420;10.072;2022-07-11T17:43:05;31.00;97.90
44573;DHT22;31762;45.420;10.072;2022-07-11T17:48:07;31.10;98.60
44573;DHT22;31762;45.420;10.072;2022-07-11T17:53:09;30.90;98.60
44573;DHT22;31762;45.420;10.072;2022-07-11T17:58:10;30.80;98.40
44573;DHT22;31762;45.420;10.072;2022-07-11T18:03:12;30.70;98.60
44573;DHT22;31762;45.420;10.072;2022-07-11T18:08:14;30.70;98.40
44573;DHT22;31762;45.420;10.072;2022-07-11T18:13:16;30.70;98.70
44573;DHT22;31762;45.420;10.072;2022-07-11T18:18:18;30.60;98.70
44573;DHT22;31762;45.420;10.072;2022-07-11T18:23:20;30.60;99.00
44573;DHT22;31762;45.420;10.072;2022-07-11T18:28:21;30.40;98.80
44573;DHT22;31762;45.420;10.072;2022-07-11T18:33:23;30.50;99.60
44573;DHT22;31762;45.420;10.072;2022-07-11T18:38:25;30.40;99.20
44573;DHT22;31762;45.420;10.072;2022-07-11T18:43:27;30.30;99.40
44573;DHT22;31762;45.420;10.072;2022-07-11T18:48:28;30.20;99.90
44573;DHT22;31762;45.420;10.072;2022-07-11T18:53:30;30.10;99.90
44573;DHT22;31762;45.420;10.072;2022-07-11T18:58:32;29.90;99.90
44573;DHT22;31762;45.420;10.072;2022-07-11T19:03:34;29.80;99.90
44573;DHT22;31762;45.420;10.072;2022-07-11T19:08:36;29.90;99.90
44573;DHT22;31762;45.420;10.072;2022-07-11T19:13:37;29.80;99.90
44573;DHT22;31762;45.420;10.072;2022-07-11T19:18:39;29.60;99.90
44573;DHT22;31762;45.420;10.072;2022-07-11T19:23:42;29.50;99.90
44573;DHT22;31762;45.420;10.072;2022-07-11T19:28:44;29.50;99.90
44573;DHT22;31762;45.420;10.072;2022-07-11T19:33:45;29.40;99.90
44573;DHT22;31762;45.420;10.072;2022-07-11T19:38:47;29.20;99.90
44573;DHT22;31762;45.420;10.072;2022-07-11T19:43:49;29.10;99.90
44573;DHT22;31762;45.420;10.072;2022-07-11T19:48:51;29.00;99.90
44573;DHT22;31762;45.420;10.072;2022-07-11T19:53:53;28.80;99.90
44573;DHT22;31762;45.420;10.072;2022-07-11T19:58:55;28.80;99.90
44573;DHT22;31762;45.420;10.072;2022-07-11T20:03:58;28.70;99.90
44573;DHT22;31762;45.420;10.072;2022-07-11T20:09:00;28.60;99.90
44573;DHT22;31762;45.420;10.072;2022-07-11T20:14:01;28.60;99.90
44573;DHT22;31762;45.420;10.072;2022-07-11T20:19:03;28.50;99.90
44573;DHT22;31762;45.420;10.072;2022-07-11T20:24:05;28.40;99.90
44573;DHT22;31762;45.420;10.072;2022-07-11T20:29:07;28.20;99.90
44573;DHT22;31762;45.420;10.072;2022-07-11T20:34:09;28.30;99.90
44573;DHT22;31762;45.420;10.072;2022-07-11T20:39:11;28.10;99.90
44573;DHT22;31762;45.420;10.072;2022-07-11T20:44:12;27.80;99.90
44573;DHT22;31762;45.420;10.072;2022-07-11T20:49:14;27.80;99.90
44573;DHT22;31762;45.420;10.072;2022-07-11T20:54:16;27.80;99.90
44573;DHT22;31762;45.420;10.072;2022-07-11T20:59:18;27.80;99.90
44573;DHT22;31762;45.420;10.072;2022-07-11T21:04:20;27.60;99.90
44573;DHT22;31762;45.420;10.072;2022-07-11T21:09:22;27.40;99.90
44573;DHT22;31762;45.420;10.072;2022-07-11T21:14:24;27.40;99.90
44573;DHT22;31762;45.420;10.072;2022-07-11T21:19:26;27.30;99.90
44573;DHT22;31762;45.420;10.072;2022-07-11T21:24:28;27.30;99.90
44573;DHT22;31762;45.420;10.072;2022-07-11T21:29:30;27.40;99.90
44573;DHT22;31762;45.420;10.072;2022-07-11T21:34:32;27.20;99.90
44573;DHT22;31762;45.420;10.072;2022-07-11T21:39:33;27.00;99.90
44573;DHT22;31762;45.420;10.072;2022-07-11T21:44:35;27.10;99.90
44573;DHT22;31762;45.420;10.072;2022-07-11T21:49:37;26.80;99.90
44573;DHT22;31762;45.420;10.072;2022-07-11T21:54:39;26.70;99.90
44573;DHT22;31762;45.420;10.072;2022-07-11T21:59:41;26.80;99.90
44573;DHT22;31762;45.420;10.072;2022-07-11T22:04:43;26.90;99.90
44573;DHT22;31762;45.420;10.072;2022-07-11T22:09:44;26.90;99.90
44573;DHT22;31762;45.420;10.072;2022-07-11T22:14:46;26.70;99.90
44573;DHT22;31762;45.420;10.072;2022-07-11T22:19:48;26.50;99.90
44573;DHT22;31762;45.420;10.072;2022-07-11T22:24:50;26.50;99.90
44573;DHT22;31762;45.420;10.072;2022-07-11T22:29:52;26.40;99.90
44573;DHT22;31762;45.420;10.072;2022-07-11T22:34:53;26.20;99.90
44573;DHT22;31762;45.420;10.072;2022-07-11T22:39:55;26.00;99.90
44573;DHT22;31762;45.420;10.072;2022-07-11T22:44:57;26.40;99.90
44573;DHT22;31762;45.420;10.072;2022-07-11T22:50:19;26.30;99.90
44573;DHT22;31762;45.420;10.072;2022-07-11T22:55:21;26.20;99.90
44573;DHT22;31762;45.420;10.072;2022-07-11T23:00:42;26.00;99.90
44573;DHT22;31762;45.420;10.072;2022-07-11T23:05:44;26.20;99.90
44573;DHT22;31762;45.420;10.072;2022-07-11T23:10:46;26.10;99.90
44573;DHT22;31762;45.420;10.072;2022-07-11T23:15:48;26.10;99.90
44573;DHT22;31762;45.420;10.072;2022-07-11T23:20:50;26.10;99.90
44573;DHT22;31762;45.420;10.072;2022-07-11T23:25:52;25.90;99.90
44573;DHT22;31762;45.420;10.072;2022-07-11T23:30:54;25.80;99.90
44573;DHT22;31762;45.420;10.072;2022-07-11T23:35:56;25.90;99.90
44573;DHT22;31762;45.420;10.072;2022-07-11T23:40:58;25.90;99.90
44573;DHT22;31762;45.420;10.072;2022-07-11T23:46:00;25.90;99.90
44573;DHT22;31762;45.420;10.072;2022-07-11T23:51:01;25.80;99.90
44573;DHT22;31762;45.420;10.072;2022-07-11T23:56:03;25.90;99.90
